createdAt,value
2019-03-28T05:08:59.644Z,101903.98
2019-03-28T05:11:56.758Z,101910.34
2019-03-28T05:18:21.765Z,101900.20
2019-03-28T05:21:40.221Z,101909.25
2019-03-28T05:24:58.735Z,101911.21
2019-03-28T05:27:45.875Z,101917.11
2019-03-28T05:30:45.341Z,101910.63
2019-03-28T05:33:24.469Z,101922.79
2019-03-28T05:37:01.529Z,101918.42
2019-03-28T05:39:43.676Z,101922.27
2019-03-28T05:42:39.050Z,101926.73
2019-03-28T05:48:46.804Z,101926.13
2019-03-28T05:51:43.652Z,101924.76
2019-03-28T05:54:48.134Z,101929.85
2019-03-28T05:57:30.072Z,101931.81
2019-03-28T06:00:20.669Z,101933.36
2019-03-28T06:03:38.360Z,101936.80
2019-03-28T06:06:46.276Z,101940.96
2019-03-28T06:10:42.405Z,101942.06
2019-03-28T06:15:06.737Z,101951.08
2019-03-28T06:21:05.568Z,101956.20
2019-03-28T06:24:46.888Z,101956.86
2019-03-28T06:27:51.226Z,101956.61
2019-03-28T06:34:46.042Z,101960.69
2019-03-28T06:41:35.754Z,101959.41
2019-03-28T06:44:27.819Z,101967.64
2019-03-28T06:47:20.820Z,101972.95
2019-03-28T06:50:17.432Z,101965.92
2019-03-28T06:53:27.123Z,101974.12
2019-03-28T06:55:59.999Z,101973.63
2019-03-28T06:58:31.954Z,101974.09
2019-03-28T07:01:04.734Z,101973.02
2019-03-28T07:03:37.196Z,101968.66
2019-03-28T07:06:09.942Z,101973.81
2019-03-28T07:08:41.473Z,101967.75
2019-03-28T07:11:13.300Z,101968.97
2019-03-28T07:13:45.364Z,101966.97
2019-03-28T07:16:35.149Z,101974.81
2019-03-28T07:19:09.150Z,101978.66
2019-03-28T07:21:46.244Z,101979.31
2019-03-28T07:24:34.821Z,101977.47
2019-03-28T07:27:06.540Z,101975.25
2019-03-28T07:29:51.175Z,101975.72
2019-03-28T07:32:20.950Z,101976.79
2019-03-28T07:34:52.979Z,101971.30
2019-03-28T07:37:27.854Z,101971.12
2019-03-28T07:40:01.215Z,101969.45
2019-03-28T07:42:32.675Z,101975.14
2019-03-28T07:45:06.464Z,101974.18
2019-03-28T07:47:45.210Z,101975.67
2019-03-28T07:50:24.529Z,101972.42
2019-03-28T07:53:00.136Z,101978.80
2019-03-28T07:55:33.081Z,101981.80
2019-03-28T07:58:10.812Z,101980.91
2019-03-28T08:00:44.674Z,101984.31
2019-03-28T08:03:19.586Z,101979.12
2019-03-28T08:05:57.828Z,101987.45
2019-03-28T08:08:38.890Z,101988.30
2019-03-28T08:11:14.810Z,101987.45
2019-03-28T08:14:20.447Z,101986.05
2019-03-28T08:16:59.892Z,101982.78
2019-03-28T08:19:59.553Z,101980.97
2019-03-28T08:22:37.085Z,101979.63
2019-03-28T08:25:17.699Z,101987.52
2019-03-28T08:28:11.371Z,101991.62
2019-03-28T08:30:57.828Z,101992.14
2019-03-28T08:33:35.880Z,101990.69
2019-03-28T08:36:12.425Z,101988.02
2019-03-28T08:39:01.871Z,101993.56
2019-03-28T08:41:44.341Z,101997.47
2019-03-28T08:44:28.781Z,101998.20
2019-03-28T08:48:10.552Z,102000.27
2019-03-28T08:51:06.603Z,102001.00
2019-03-28T08:54:03.157Z,102001.00
2019-03-28T08:56:50.064Z,102003.95
2019-03-28T09:02:17.148Z,102009.81
2019-03-28T09:04:58.498Z,102007.52
2019-03-28T09:07:42.253Z,101999.47
2019-03-28T09:10:51.290Z,102004.69
2019-03-28T09:13:42.179Z,102001.28
2019-03-28T09:16:44.791Z,102000.30
2019-03-28T09:20:12.194Z,102002.30
2019-03-28T09:27:30.529Z,102008.19
2019-03-28T09:30:14.963Z,102005.02
2019-03-28T09:36:07.447Z,102004.30
2019-03-28T09:38:45.101Z,102001.75
2019-03-28T09:41:26.595Z,101997.38
2019-03-28T09:44:05.453Z,102003.80
2019-03-28T09:46:47.621Z,102000.45
2019-03-28T09:49:39.209Z,101994.48
2019-03-28T09:52:32.908Z,102000.54
2019-03-28T09:55:19.137Z,102001.95
2019-03-28T09:58:23.084Z,101997.84
2019-03-28T10:01:14.616Z,102001.95
2019-03-28T10:04:28.891Z,102000.93
2019-03-28T10:07:07.302Z,102001.72
2019-03-28T10:09:50.771Z,102002.22
2019-03-28T10:12:34.307Z,101998.50
2019-03-28T10:15:26.626Z,101989.86
2019-03-28T10:18:01.533Z,101989.44
2019-03-28T10:20:46.203Z,101986.05
2019-03-28T10:23:24.899Z,101982.95
2019-03-28T10:25:56.946Z,101975.95
2019-03-28T10:28:32.715Z,101980.16
2019-03-28T10:31:16.730Z,101977.66
2019-03-28T10:33:46.053Z,101976.39
2019-03-28T10:36:18.737Z,101971.12
2019-03-28T10:38:52.744Z,101980.09
2019-03-28T10:41:27.228Z,101974.34
2019-03-28T10:44:01.824Z,101979.47
2019-03-28T10:46:33.956Z,101980.05
2019-03-28T10:49:05.743Z,101977.83
2019-03-28T10:51:38.088Z,101977.91
2019-03-28T10:54:19.814Z,101976.95
2019-03-28T10:56:52.283Z,101978.22
2019-03-28T10:59:44.910Z,101978.79
2019-03-28T11:02:32.046Z,101985.57
2019-03-28T11:05:16.163Z,101987.83
2019-03-28T11:08:01.991Z,101980.81
2019-03-28T11:10:54.126Z,101979.66
2019-03-28T11:13:38.620Z,101979.03
2019-03-28T11:16:55.881Z,101986.67
2019-03-28T11:19:28.012Z,101987.34
2019-03-28T11:22:26.647Z,101977.87
2019-03-28T11:25:02.196Z,101973.47
2019-03-28T11:27:43.757Z,101972.75
2019-03-28T11:30:49.251Z,101970.66
2019-03-28T11:33:28.566Z,101967.42
2019-03-28T11:36:08.948Z,101966.02
2019-03-28T11:38:48.781Z,101965.11
2019-03-28T11:41:31.054Z,101981.64
2019-03-28T11:44:07.207Z,101974.77
2019-03-28T11:51:04.030Z,101979.92
2019-03-28T11:53:40.457Z,101972.92
2019-03-28T11:56:12.396Z,101969.91
2019-03-28T11:58:45.206Z,101978.84
2019-03-28T12:01:17.342Z,101975.45
2019-03-28T12:03:49.501Z,101974.24
2019-03-28T12:06:54.725Z,101976.40
2019-03-28T12:09:30.523Z,101972.45
2019-03-28T12:12:16.263Z,101978.74
2019-03-28T12:14:51.686Z,101983.99
2019-03-28T12:17:23.449Z,101987.95
2019-03-28T12:19:54.793Z,101991.78
2019-03-28T12:22:26.280Z,101992.64
2019-03-28T12:24:58.004Z,101988.96
2019-03-28T12:27:54.102Z,101992.38
2019-03-28T12:30:36.228Z,101989.81
2019-03-28T12:33:09.147Z,101982.75
2019-03-28T12:35:46.879Z,101984.38
2019-03-28T12:38:48.347Z,101987.22
2019-03-28T12:41:24.331Z,101983.84
2019-03-28T12:43:56.013Z,101986.05
2019-03-28T12:46:43.792Z,101977.81
2019-03-28T12:49:15.477Z,101979.58
2019-03-28T12:51:58.765Z,101981.16
2019-03-28T12:54:35.099Z,101982.92
2019-03-28T12:57:06.515Z,101980.17
2019-03-28T12:59:59.507Z,101974.86
2019-03-28T13:02:32.084Z,101981.39
2019-03-28T13:05:22.762Z,101977.42
2019-03-28T13:07:54.432Z,101972.16
2019-03-28T13:10:27.387Z,101974.12
2019-03-28T13:13:09.437Z,101979.61
2019-03-28T13:15:48.698Z,101985.30
2019-03-28T13:18:49.899Z,101978.80
2019-03-28T13:21:22.385Z,101979.95
2019-03-28T13:23:54.811Z,101972.71
2019-03-28T13:26:27.084Z,101973.38
2019-03-28T13:28:59.096Z,101978.20
2019-03-28T13:31:32.959Z,101974.95
2019-03-28T13:34:07.084Z,101977.38
2019-03-28T13:36:42.444Z,101978.01
2019-03-28T13:39:19.808Z,101973.23
2019-03-28T13:41:53.778Z,101981.91
2019-03-28T13:44:24.818Z,101977.52
2019-03-28T13:46:56.212Z,101980.64
2019-03-28T13:49:27.859Z,101977.27
2019-03-28T13:52:01.980Z,101980.33
2019-03-28T13:54:34.280Z,101979.91
2019-03-28T13:57:12.458Z,101978.31
2019-03-28T13:59:43.999Z,101978.30
2019-03-28T14:02:17.944Z,101980.23
2019-03-28T14:04:50.601Z,101983.39
2019-03-28T14:07:24.221Z,101980.55
2019-03-28T14:09:56.009Z,101986.58
2019-03-28T14:12:27.704Z,101984.69
2019-03-28T14:14:59.362Z,101986.76
2019-03-28T14:17:30.680Z,101987.80
2019-03-28T14:20:02.384Z,101990.00
2019-03-28T14:22:33.808Z,101993.57
2019-03-28T14:25:05.634Z,101993.02
2019-03-28T14:27:45.407Z,101992.39
2019-03-28T14:30:20.104Z,101995.72
2019-03-28T14:32:53.535Z,101996.75
2019-03-28T14:35:26.143Z,101999.70
2019-03-28T14:38:00.975Z,102002.84
2019-03-28T14:40:32.410Z,101997.09
2019-03-28T14:43:05.243Z,101999.06
2019-03-28T14:45:38.929Z,102002.13
2019-03-28T14:48:13.700Z,102001.67
2019-03-28T14:50:45.929Z,102002.31
2019-03-28T14:53:28.743Z,102000.63
2019-03-28T14:56:02.912Z,102008.34
2019-03-28T14:58:45.529Z,102000.56
2019-03-28T15:01:28.044Z,102010.46
2019-03-28T15:04:05.258Z,102009.20
2019-03-28T15:06:51.446Z,102013.94
2019-03-28T15:09:32.270Z,102004.28
2019-03-28T15:12:03.407Z,102019.74
2019-03-28T15:14:52.934Z,102009.02
2019-03-28T15:17:28.111Z,102012.66
2019-03-28T15:20:00.397Z,102008.31
2019-03-28T15:22:49.602Z,102008.16
2019-03-28T15:25:28.015Z,102006.80
2019-03-28T15:28:00.939Z,102003.94
2019-03-28T15:31:06.962Z,102002.38
2019-03-28T15:33:42.909Z,102002.55
2019-03-28T15:36:30.044Z,102005.06
2019-03-28T15:39:02.799Z,102000.88
2019-03-28T15:41:34.588Z,102003.80
2019-03-28T15:44:21.206Z,102001.89
2019-03-28T15:46:51.806Z,102000.02
2019-03-28T15:49:23.780Z,102008.30
2019-03-28T15:52:05.474Z,101997.78
2019-03-28T15:54:37.374Z,102005.56
2019-03-28T15:57:10.519Z,101999.31
2019-03-28T15:59:44.099Z,102007.80
2019-03-28T16:02:16.289Z,102002.77
2019-03-28T16:04:47.897Z,102008.95
2019-03-28T16:07:20.596Z,102007.85
2019-03-28T16:10:15.247Z,102003.77
2019-03-28T16:13:09.677Z,102001.27
2019-03-28T16:15:43.371Z,102003.63
2019-03-28T16:18:22.644Z,102006.56
2019-03-28T16:20:55.361Z,102011.38
2019-03-28T16:23:26.850Z,102004.63
2019-03-28T16:26:21.681Z,102003.61
2019-03-28T16:29:08.223Z,102008.56
2019-03-28T16:31:40.837Z,102013.34
2019-03-28T16:34:14.773Z,102010.02
2019-03-28T16:36:50.427Z,102009.37
2019-03-28T16:39:25.935Z,102009.65
2019-03-28T16:42:03.900Z,102002.20
2019-03-28T16:44:39.749Z,102013.16
2019-03-28T16:47:35.123Z,102012.86
2019-03-28T16:50:13.744Z,102020.33
2019-03-28T16:52:53.482Z,102019.38
2019-03-28T16:55:31.581Z,102013.03
2019-03-28T16:58:05.385Z,102016.98
2019-03-28T17:00:40.952Z,102019.08
2019-03-28T17:03:13.488Z,102011.30
2019-03-28T17:05:47.717Z,102013.82
2019-03-28T17:08:22.942Z,102001.95
2019-03-28T17:32:41.859Z,102032.52
2019-03-28T17:35:13.672Z,102034.40
2019-03-28T17:37:50.183Z,102039.02
2019-03-28T17:41:35.383Z,102038.22
2019-03-28T17:45:19.099Z,102032.63
2019-03-28T17:51:59.174Z,102043.46
2019-03-28T17:54:35.669Z,102045.92
2019-03-28T17:57:08.771Z,102055.75
2019-03-28T17:59:52.271Z,102054.09
2019-03-28T18:02:38.595Z,102055.23
2019-03-28T18:05:12.858Z,102051.98
2019-03-28T18:07:55.179Z,102060.98
2019-03-28T18:10:26.861Z,102059.22
2019-03-28T18:13:02.023Z,102065.08
2019-03-28T18:15:35.655Z,102067.47
2019-03-28T18:18:23.017Z,102077.48
2019-03-28T18:21:17.206Z,102076.80
2019-03-28T18:23:49.998Z,102076.41
2019-03-28T18:26:25.946Z,102080.22
2019-03-28T18:29:13.083Z,102090.51
2019-03-28T18:31:53.728Z,102086.89
2019-03-28T18:34:34.600Z,102085.00
2019-03-28T18:37:11.181Z,102084.36
2019-03-28T18:39:48.052Z,102087.66
2019-03-28T18:42:25.022Z,102091.46
2019-03-28T18:45:12.525Z,102092.43
2019-03-28T18:47:44.736Z,102090.71
2019-03-28T18:50:17.535Z,102094.37
2019-03-28T18:52:52.713Z,102092.55
2019-03-28T18:55:30.064Z,102096.66
2019-03-28T18:58:09.628Z,102095.55
2019-03-28T19:00:47.884Z,102102.85
2019-03-28T19:06:16.914Z,102107.84
2019-03-28T19:08:50.810Z,102111.20
2019-03-28T19:11:28.043Z,102115.15
2019-03-28T19:14:17.624Z,102109.30
2019-03-28T19:16:53.683Z,102107.53
2019-03-28T19:19:39.131Z,102109.34
2019-03-28T19:22:11.032Z,102110.58
2019-03-28T19:24:46.681Z,102113.20
2019-03-28T19:27:40.819Z,102117.70
2019-03-28T19:30:24.203Z,102117.47
2019-03-28T19:33:10.747Z,102115.39
2019-03-28T19:36:10.222Z,102113.68
2019-03-28T19:38:46.291Z,102119.17
2019-03-28T19:41:31.854Z,102108.08
2019-03-28T19:44:04.880Z,102106.06
2019-03-28T19:47:08.692Z,102104.09
2019-03-28T19:49:52.152Z,102101.50
2019-03-28T19:52:26.244Z,102096.95
2019-03-28T19:55:15.091Z,102095.69
2019-03-28T19:57:50.734Z,102090.45
2019-03-28T20:00:37.668Z,102100.59
2019-03-28T20:03:28.795Z,102109.09
2019-03-28T20:06:23.434Z,102101.73
2019-03-28T20:09:15.730Z,102099.91
2019-03-28T20:11:39.848Z,102106.03
2019-03-28T20:14:13.425Z,102108.48
2019-03-28T20:16:55.078Z,102113.73
2019-03-28T20:20:03.358Z,102109.16
2019-03-28T20:22:59.549Z,102118.53
2019-03-28T20:25:42.937Z,102117.75
2019-03-28T20:28:26.449Z,102115.45
2019-03-28T20:31:13.051Z,102117.52
2019-03-28T20:33:50.974Z,102114.67
2019-03-28T20:36:38.025Z,102120.14
2019-03-28T20:39:22.092Z,102118.88
2019-03-28T20:42:03.065Z,102122.34
2019-03-28T20:44:52.950Z,102123.75
2019-03-28T20:47:37.352Z,102120.93
2019-03-28T20:50:19.447Z,102123.17
2019-03-28T20:53:08.977Z,102123.47
2019-03-28T20:56:30.303Z,102122.28
2019-03-28T21:00:08.745Z,102121.86
2019-03-28T21:02:44.589Z,102123.60
2019-03-28T21:05:37.252Z,102129.46
2019-03-28T21:08:50.064Z,102124.66
2019-03-28T21:14:53.787Z,102129.78
2019-03-28T21:17:38.246Z,102129.05
2019-03-28T21:20:38.199Z,102125.57
2019-03-28T21:23:33.505Z,102131.95
2019-03-28T21:26:15.466Z,102133.62
2019-03-28T21:28:47.862Z,102135.86
2019-03-28T21:31:59.350Z,102130.14
2019-03-28T21:34:49.282Z,102130.84
2019-03-28T21:37:52.780Z,102129.65
2019-03-28T21:40:25.297Z,102123.00
2019-03-28T21:43:12.775Z,102128.84
2019-03-28T21:45:51.040Z,102124.38
2019-03-28T21:48:49.874Z,102121.91
2019-03-28T21:51:23.119Z,102117.54
2019-03-28T21:54:11.371Z,102114.23
2019-03-28T21:57:17.862Z,102103.73
2019-03-28T21:59:52.322Z,102111.83
2019-03-28T22:02:27.096Z,102113.58
2019-03-28T22:05:00.856Z,102111.96
2019-03-28T22:07:41.119Z,102111.56
2019-03-28T22:10:27.409Z,102115.92
2019-03-28T22:13:14.701Z,102114.19
2019-03-28T22:15:51.748Z,102110.53
2019-03-28T22:18:38.887Z,102108.02
2019-03-28T22:21:19.105Z,102111.58
2019-03-28T22:23:54.807Z,102109.06
2019-03-28T22:26:31.762Z,102107.34
2019-03-28T22:29:05.357Z,102113.98
2019-03-28T22:32:17.594Z,102109.08
2019-03-28T22:34:54.703Z,102117.61
2019-03-28T22:37:34.715Z,102115.67
2019-03-28T22:40:12.335Z,102118.14
2019-03-28T22:42:45.516Z,102117.41
2019-03-28T22:45:23.241Z,102109.06
2019-03-28T22:48:10.108Z,102101.67
2019-03-28T22:50:38.201Z,102104.61
2019-03-28T22:53:25.753Z,102104.19
2019-03-28T22:56:09.571Z,102101.27
2019-03-28T22:58:43.544Z,102106.80
2019-03-28T23:01:31.306Z,102108.30
2019-03-28T23:04:25.069Z,102107.72
2019-03-28T23:07:11.013Z,102107.19
2019-03-28T23:09:46.816Z,102102.25
2019-03-28T23:12:35.628Z,102112.55
2019-03-28T23:15:12.049Z,102110.11
2019-03-28T23:17:56.298Z,102110.19
2019-03-28T23:20:35.510Z,102103.41
2019-03-28T23:23:18.775Z,102103.23
2019-03-28T23:26:09.857Z,102113.35
2019-03-28T23:28:53.915Z,102116.11
2019-03-28T23:31:52.906Z,102110.99
2019-03-28T23:34:28.761Z,102115.88
2019-03-28T23:37:06.426Z,102122.39
2019-03-28T23:39:43.298Z,102119.95
2019-03-28T23:42:47.815Z,102122.52
2019-03-28T23:45:40.927Z,102120.44
2019-03-28T23:48:19.193Z,102121.37
2019-03-28T23:54:17.610Z,102125.09
2019-03-28T23:57:09.439Z,102127.99
2019-03-28T23:59:47.604Z,102126.80
